sensor_id;sensor_type;location;lat;lon;timestamp;pressure;altitude;pressure_sealevel;temperature;humidity
12073;BME280;6098;49.004;8.372;2024-01-06T00:09:50;99248.36;;;7.41;84.94
12073;BME280;6098;49.004;8.372;2024-01-06T00:24:42;99256.48;;;7.36;84.58
12073;BME280;6098;49.004;8.372;2024-01-06T00:39:33;99257.38;;;7.36;84.04
12073;BME280;6098;49.004;8.372;2024-01-06T00:54:24;99255.45;;;7.29;83.95
12073;BME280;6098;49.004;8.372;2024-01-06T01:09:15;99265.27;;;7.26;84.08
12073;BME280;6098;49.004;8.372;2024-01-06T01:24:06;99286.39;;;7.15;83.96
12073;BME280;6098;49.004;8.372;2024-01-06T01:38:57;99300.91;;;7.04;83.92
12073;BME280;6098;49.004;8.372;2024-01-06T01:53:49;99318.58;;;7.01;84.10
12073;BME280;6098;49.004;8.372;2024-01-06T02:08:38;99341.77;;;7.03;83.51
12073;BME280;6098;49.004;8.372;2024-01-06T02:23:29;99353.03;;;6.97;83.78
12073;BME280;6098;49.004;8.372;2024-01-06T02:38:30;99372.28;;;6.98;83.72
12073;BME280;6098;49.004;8.372;2024-01-06T02:53:20;99385.94;;;6.86;84.38
12073;BME280;6098;49.004;8.372;2024-01-06T03:08:10;99391.03;;;6.80;84.93
12073;BME280;6098;49.004;8.372;2024-01-06T03:23:01;99404.83;;;6.63;85.42
12073;BME280;6098;49.004;8.372;2024-01-06T03:37:53;99406.72;;;6.60;85.55
12073;BME280;6098;49.004;8.372;2024-01-06T03:52:44;99406.19;;;6.62;84.59
12073;BME280;6098;49.004;8.372;2024-01-06T04:07:35;99412.58;;;6.67;84.65
12073;BME280;6098;49.004;8.372;2024-01-06T04:22:28;99401.86;;;6.72;85.04
12073;BME280;6098;49.004;8.372;2024-01-06T04:37:19;99401.73;;;6.75;84.74
12073;BME280;6098;49.004;8.372;2024-01-06T04:52:11;99402.33;;;6.71;84.74
12073;BME280;6098;49.004;8.372;2024-01-06T05:07:02;99399.62;;;6.73;84.65
12073;BME280;6098;49.004;8.372;2024-01-06T05:21:52;99398.66;;;6.64;84.62
12073;BME280;6098;49.004;8.372;2024-01-06T05:36:43;99402.83;;;6.70;84.37
12073;BME280;6098;49.004;8.372;2024-01-06T05:51:33;99415.26;;;6.66;85.54
12073;BME280;6098;49.004;8.372;2024-01-06T06:06:24;99434.20;;;6.76;85.14
12073;BME280;6098;49.004;8.372;2024-01-06T06:21:15;99457.76;;;6.80;84.67
12073;BME280;6098;49.004;8.372;2024-01-06T06:36:07;99476.00;;;6.84;84.19
12073;BME280;6098;49.004;8.372;2024-01-06T06:50:58;99482.42;;;6.89;83.65
12073;BME280;6098;49.004;8.372;2024-01-06T07:05:51;99519.32;;;6.99;83.43
12073;BME280;6098;49.004;8.372;2024-01-06T07:20:43;99537.31;;;7.00;82.95
12073;BME280;6098;49.004;8.372;2024-01-06T07:35:34;99543.32;;;7.03;82.92
12073;BME280;6098;49.004;8.372;2024-01-06T07:50:26;99540.83;;;7.00;83.03
12073;BME280;6098;49.004;8.372;2024-01-06T08:05:16;99562.27;;;7.14;83.03
12073;BME280;6098;49.004;8.372;2024-01-06T08:20:08;99566.40;;;7.20;84.29
12073;BME280;6098;49.004;8.372;2024-01-06T08:34:59;99596.55;;;7.24;86.27
12073;BME280;6098;49.004;8.372;2024-01-06T09:04:53;99612.37;;;7.24;89.11
12073;BME280;6098;49.004;8.372;2024-01-06T09:19:43;99622.17;;;7.20;90.15
12073;BME280;6098;49.004;8.372;2024-01-06T09:34:34;99618.64;;;7.21;90.40
12073;BME280;6098;49.004;8.372;2024-01-06T09:49:25;99639.70;;;7.33;90.58
12073;BME280;6098;49.004;8.372;2024-01-06T10:04:17;99639.89;;;7.28;90.70
12073;BME280;6098;49.004;8.372;2024-01-06T10:19:16;99640.73;;;7.40;90.39
12073;BME280;6098;49.004;8.372;2024-01-06T10:34:09;99648.42;;;7.46;89.81
12073;BME280;6098;49.004;8.372;2024-01-06T10:48:59;99646.45;;;7.51;89.99
12073;BME280;6098;49.004;8.372;2024-01-06T11:03:50;99648.20;;;7.52;91.01
12073;BME280;6098;49.004;8.372;2024-01-06T11:18:41;99646.67;;;7.46;90.12
12073;BME280;6098;49.004;8.372;2024-01-06T11:33:33;99644.23;;;7.53;88.61
12073;BME280;6098;49.004;8.372;2024-01-06T11:48:25;99636.63;;;7.56;89.08
12073;BME280;6098;49.004;8.372;2024-01-06T12:03:16;99627.16;;;7.62;89.07
12073;BME280;6098;49.004;8.372;2024-01-06T12:18:08;99630.05;;;7.66;89.13
12073;BME280;6098;49.004;8.372;2024-01-06T12:33:01;99617.51;;;7.61;89.20
12073;BME280;6098;49.004;8.372;2024-01-06T12:47:52;99621.52;;;7.71;89.95
12073;BME280;6098;49.004;8.372;2024-01-06T13:02:44;99619.75;;;7.83;89.82
12073;BME280;6098;49.004;8.372;2024-01-06T13:17:34;99632.22;;;7.79;89.97
12073;BME280;6098;49.004;8.372;2024-01-06T13:32:26;99633.78;;;7.83;90.79
12073;BME280;6098;49.004;8.372;2024-01-06T13:47:16;99647.41;;;7.84;91.66
12073;BME280;6098;49.004;8.372;2024-01-06T14:02:07;99649.58;;;7.73;92.87
12073;BME280;6098;49.004;8.372;2024-01-06T14:16:58;99661.17;;;7.69;93.82
12073;BME280;6098;49.004;8.372;2024-01-06T14:31:49;99669.38;;;7.73;94.47
12073;BME280;6098;49.004;8.372;2024-01-06T14:46:40;99674.05;;;7.66;95.06
12073;BME280;6098;49.004;8.372;2024-01-06T15:01:32;99685.42;;;7.67;95.39
12073;BME280;6098;49.004;8.372;2024-01-06T15:16:24;99702.94;;;7.69;95.44
12073;BME280;6098;49.004;8.372;2024-01-06T15:31:15;99709.47;;;7.70;96.91
12073;BME280;6098;49.004;8.372;2024-01-06T15:46:06;99719.36;;;7.65;97.25
12073;BME280;6098;49.004;8.372;2024-01-06T16:00:58;99728.95;;;7.66;97.49
12073;BME280;6098;49.004;8.372;2024-01-06T16:15:50;99727.83;;;7.62;97.38
12073;BME280;6098;49.004;8.372;2024-01-06T16:30:40;99730.56;;;7.59;97.63
12073;BME280;6098;49.004;8.372;2024-01-06T16:45:32;99736.45;;;7.55;97.69
12073;BME280;6098;49.004;8.372;2024-01-06T17:00:23;99746.88;;;7.58;97.25
12073;BME280;6098;49.004;8.372;2024-01-06T17:15:14;99756.55;;;7.58;97.26
12073;BME280;6098;49.004;8.372;2024-01-06T17:30:05;99754.99;;;7.52;97.61
12073;BME280;6098;49.004;8.372;2024-01-06T17:44:58;99767.67;;;7.54;97.61
12073;BME280;6098;49.004;8.372;2024-01-06T17:59:49;99772.15;;;7.52;97.37
12073;BME280;6098;49.004;8.372;2024-01-06T18:14:41;99776.23;;;7.48;97.41
12073;BME280;6098;49.004;8.372;2024-01-06T18:29:32;99789.98;;;7.45;97.14
12073;BME280;6098;49.004;8.372;2024-01-06T18:44:24;99792.06;;;7.48;97.42
12073;BME280;6098;49.004;8.372;2024-01-06T18:59:16;99801.66;;;7.50;97.30
12073;BME280;6098;49.004;8.372;2024-01-06T19:14:07;99808.26;;;7.50;96.55
12073;BME280;6098;49.004;8.372;2024-01-06T19:28:58;99819.80;;;7.47;97.15
12073;BME280;6098;49.004;8.372;2024-01-06T19:43:49;99819.55;;;7.42;95.42
12073;BME280;6098;49.004;8.372;2024-01-06T19:58:41;99827.23;;;7.23;95.36
12073;BME280;6098;49.004;8.372;2024-01-06T20:13:32;99835.78;;;7.17;97.30
12073;BME280;6098;49.004;8.372;2024-01-06T20:28:22;99840.11;;;7.06;96.67
12073;BME280;6098;49.004;8.372;2024-01-06T20:43:14;99851.79;;;6.84;94.95
12073;BME280;6098;49.004;8.372;2024-01-06T20:58:06;99847.55;;;6.66;94.17
12073;BME280;6098;49.004;8.372;2024-01-06T21:12:56;99845.02;;;6.50;94.33
12073;BME280;6098;49.004;8.372;2024-01-06T21:27:48;99841.03;;;6.36;96.36
12073;BME280;6098;49.004;8.372;2024-01-06T21:42:37;99853.78;;;6.06;100.00
12073;BME280;6098;49.004;8.372;2024-01-06T21:57:28;99854.45;;;5.98;100.00
12073;BME280;6098;49.004;8.372;2024-01-06T22:12:20;99874.11;;;6.00;100.00
12073;BME280;6098;49.004;8.372;2024-01-06T22:27:12;99881.19;;;5.98;100.00
12073;BME280;6098;49.004;8.372;2024-01-06T22:42:04;99892.26;;;5.94;100.00
12073;BME280;6098;49.004;8.372;2024-01-06T22:56:56;99890.99;;;5.92;100.00
12073;BME280;6098;49.004;8.372;2024-01-06T23:11:47;99894.28;;;6.00;100.00
12073;BME280;6098;49.004;8.372;2024-01-06T23:26:39;99907.23;;;6.07;100.00
12073;BME280;6098;49.004;8.372;2024-01-06T23:41:31;99915.52;;;6.09;100.00
12073;BME280;6098;49.004;8.372;2024-01-06T23:56:25;99919.45;;;6.09;100.00
